TTPPTTCP

Guest
Details From TTPP - Trinidade Piarco
To TTCP - Tobago Crown Point
Flight Number -
Tags Generated
Created
Modified
Stats Distance 45 nm / 83 km
Max Altitude 0 ft / 0 m
Waypoints 2
Social Downloads 1
Likes 0
Share VATSIM

Download

Looking for another format? Having issues loading an existing format? Contact us
Advertisement - Login to hide

Notes

Generated

Route

TTPP TTCP

ID Type Via Altitude Latitude Longitude Leg Dist Tot Dist Heading (true) Name
O TTPP APT - 0 ft / 0 m 10.59533˚ -61.35186˚ - 0 nm - -
O TTCP APT - 0 ft / 0 m 11.15056˚ -60.84472˚ 44 nm 44 nm 42° / 42° -

Altitude Profile

Advertisement - Login to hide

TTPP

Details ICAO TTPP (POS)
Name Trinidad/Piarco Intl
Region Trinidad and Tobago
Timezone America/Port_of_Spain (UTC-4.0)
Stats Elevation 57 ft / 17 m (AMSL)
Location 10.595370° -61.337239°
Runways 1
Magnetic Variation 15.000° W

METAR

TTPP 140200Z 12003KT 9999 VCSH SCT014 BKN038 23/22 Q1015 RERA NOSIG RMK VCSH-S QUAD

Decode

TAF

Not found

Departure Runways

ID Width Length Bearing (true) Bearing (mag) Surface Threshold Offset Overrun Length
10 151 ft / 46 m 10,486 ft / 3,196 m 89.83° 104.83° Asphalt 0 ft / 0 m 79 ft / 24 m
28 151 ft / 46 m 10,486 ft / 3,196 m 269.84° 284.84° Asphalt 0 ft / 0 m 184 ft / 56 m

TTCP

Details ICAO TTCP (TAB)
Name Tobago/Crown Point Intl
Region Trinidad and Tobago
Timezone America/Port_of_Spain (UTC-4.0)
Stats Elevation 36 ft / 11 m (AMSL)
Location 11.149660° -60.832196°
Runways 1
Magnetic Variation 15.193° W

METAR

TTCP 140200Z 08007KT 9999 FEW016 27/23 Q1015 NOSIG

Decode

TAF

Not found

Destination Runways

ID Width Length Bearing (true) Bearing (mag) Surface Threshold Offset Overrun Length
11 148 ft / 45 m 8,995 ft / 2,742 m 94.17° 109.36° Asphalt 1,004 ft / 306 m 0 ft / 0 m
29 148 ft / 45 m 8,995 ft / 2,742 m 274.17° 289.36° Asphalt 0 ft / 0 m 299 ft / 91 m

Approach Navaids

Runway Type Ident Frequency Range Bearing (true) Bearing (mag) Slope Elevation
11 Localiser ITAB 109.30 MHz 18 nm / 33 km 94.17° 109.36° - 36 ft / 11 m (AMSL)
11 Glidescope ITAB 109.30 MHz 10 nm / 19 km 94.17° 109.36° 3.00° 36 ft / 11 m (AMSL)
11 DME ITAB 109.30 MHz 18 nm / 33 km - - - 36 ft / 11 m (AMSL)

Popular Alternatives